Time;durP1;ratioP1;P1;durP2;ratioP2;P2;SDS_P1;SDS_P2;PMS_P1;PMS_P2;Temp;Humidity;BMP_temperature;BMP_pressure;BME280_temperature;BME280_humidity;BME280_pressure;Samples;Min_cycle;Max_cycle;Signal;HPM_P1;HPM_P2
2021/12/20 00:00:11;;;;;;;34.08;14.95;;;;;;;7.56;100.00;101679.44;8384218;27;20121;-65
2021/12/20 00:04:12;;;;;;;33.72;14.25;;;;;;;7.57;100.00;101690.09;8384472;27;20441;-65
2021/12/20 00:08:12;;;;;;;27.23;14.68;;;;;;;7.58;100.00;101686.47;8384038;27;20036;-65
2021/12/20 00:12:13;;;;;;;28.05;14.95;;;;;;;7.59;100.00;101680.13;8401399;27;20043;-65
2021/12/20 00:16:14;;;;;;;35.08;15.48;;;;;;;7.56;100.00;101672.22;8418134;27;20052;-65
2021/12/20 00:20:14;;;;;;;37.35;15.70;;;;;;;7.53;100.00;101677.81;8384589;28;20037;-65
2021/12/20 00:24:15;;;;;;;28.15;15.60;;;;;;;7.53;100.00;101671.53;8383831;28;20033;-65
2021/12/20 00:28:18;;;;;;;31.33;15.32;;;;;;;7.52;100.00;101676.09;8369799;28;20045;-65
2021/12/20 00:32:18;;;;;;;32.80;14.18;;;;;;;7.55;100.00;101675.91;8356842;28;20089;-65
2021/12/20 00:36:22;;;;;;;33.28;14.40;;;;;;;7.53;100.00;101668.84;8357178;28;20045;-65
2021/12/20 00:40:22;;;;;;;31.85;14.95;;;;;;;7.51;100.00;101674.31;8378069;28;20123;-65
2021/12/20 00:44:22;;;;;;;35.10;14.40;;;;;;;7.51;100.00;101668.94;8375334;28;20090;-65
2021/12/20 00:48:23;;;;;;;27.17;13.90;;;;;;;7.52;100.00;101670.69;8364293;28;20512;-65
2021/12/20 00:52:24;;;;;;;31.92;12.68;;;;;;;7.50;100.00;101675.31;8382682;28;20559;-65
2021/12/20 00:56:25;;;;;;;23.55;11.82;;;;;;;7.49;100.00;101657.44;8364632;28;20045;-65
2021/12/20 01:00:30;;;;;;;22.73;11.27;;;;;;;7.53;100.00;101650.91;8326550;28;20065;-65
2021/12/20 01:04:31;;;;;;;25.42;11.02;;;;;;;7.48;100.00;101669.13;8335767;28;20041;-65
2021/12/20 01:08:35;;;;;;;22.90;10.23;;;;;;;7.49;100.00;101670.00;8327301;28;20042;-65
2021/12/20 01:12:48;;;;;;;19.92;9.68;;;;;;;7.50;100.00;101672.59;8344861;28;20104;-65
2021/12/20 01:16:48;;;;;;;21.63;9.77;;;;;;;7.47;100.00;101678.16;8349854;28;20052;-65
2021/12/20 01:20:50;;;;;;;17.13;8.13;;;;;;;7.51;100.00;101674.31;8360257;28;20040;-65
2021/12/20 01:24:50;;;;;;;18.70;7.78;;;;;;;7.55;100.00;101675.91;8360043;28;20104;-65
2021/12/20 01:28:51;;;;;;;18.58;7.03;;;;;;;7.55;100.00;101670.50;8359710;28;20124;-65
2021/12/20 01:32:52;;;;;;;19.40;8.05;;;;;;;7.52;100.00;101665.31;8337179;28;20106;-65
2021/12/20 01:36:52;;;;;;;18.65;7.55;;;;;;;7.47;100.00;101662.03;8327237;28;20404;-65
2021/12/20 01:40:53;;;;;;;19.45;7.50;;;;;;;7.49;100.00;101672.69;8326465;28;20042;-65
2021/12/20 01:44:56;;;;;;;17.83;7.10;;;;;;;7.52;100.00;101668.00;8328024;28;20043;-65
2021/12/20 01:48:58;;;;;;;17.38;7.45;;;;;;;7.55;100.00;101665.13;8340775;28;20044;-65
2021/12/20 01:52:58;;;;;;;23.05;7.38;;;;;;;7.57;100.00;101668.56;8359053;28;20052;-64
2021/12/20 01:56:58;;;;;;;19.27;7.30;;;;;;;7.54;100.00;101668.75;8358923;28;20112;-64
2021/12/20 02:05:27;;;;;;;14.93;7.13;;;;;;;7.53;100.00;101656.28;8409162;27;20628;-64
2021/12/20 02:09:27;;;;;;;22.55;7.70;;;;;;;7.50;100.00;101659.16;8394416;28;20070;-64
2021/12/20 02:13:29;;;;;;;19.42;8.23;;;;;;;7.45;100.00;101657.72;8394132;27;20087;-64
2021/12/20 02:17:30;;;;;;;19.20;7.07;;;;;;;7.41;100.00;101656.19;8382902;28;20556;-64
2021/12/20 02:21:32;;;;;;;23.23;8.23;;;;;;;7.38;100.00;101657.19;8382493;28;20122;-64
2021/12/20 02:25:33;;;;;;;24.95;8.93;;;;;;;7.36;100.00;101659.13;8367602;28;20034;-64
2021/12/20 02:29:47;;;;;;;21.52;7.40;;;;;;;7.44;100.00;101654.13;8378822;28;20420;-64
2021/12/20 02:38:08;;;;;;;23.55;6.10;;;;;;;7.51;100.00;101646.56;8415011;28;20044;-64
2021/12/20 02:42:12;;;;;;;17.60;6.57;;;;;;;7.49;100.00;101657.44;8415518;28;20111;-64
2021/12/20 02:46:43;;;;;;;19.00;6.35;;;;;;;7.45;100.00;101653.22;8417780;28;20044;-64
2021/12/20 02:50:42;;;;;;;18.17;6.50;;;;;;;7.44;100.00;101646.06;8416793;28;20036;-64
2021/12/20 02:54:42;;;;;;;25.35;7.78;;;;;;;7.42;100.00;101641.75;8423132;28;20039;-64
2021/12/20 02:58:43;;;;;;;23.17;6.68;;;;;;;7.45;100.00;101644.25;8416972;28;20040;-64
2021/12/20 03:02:44;;;;;;;18.33;5.85;;;;;;;7.48;100.00;101644.91;8410900;28;20056;-64
2021/12/20 03:06:49;;;;;;;24.27;6.57;;;;;;;7.49;100.00;101646.66;8388501;28;20504;-64
2021/12/20 03:10:50;;;;;;;18.48;6.47;;;;;;;7.45;100.00;101647.81;8383482;28;20037;-64
2021/12/20 03:14:54;;;;;;;14.18;5.68;;;;;;;7.46;100.00;101656.75;8370890;28;20060;-64
2021/12/20 03:18:55;;;;;;;23.98;5.60;;;;;;;7.46;100.00;101651.34;8361097;28;20119;-64
2021/12/20 03:22:55;;;;;;;24.95;5.40;;;;;;;7.43;100.00;101657.81;8361023;28;20044;-64
2021/12/20 03:26:56;;;;;;;13.88;5.20;;;;;;;7.39;100.00;101647.31;8368772;28;20053;-64
2021/12/20 03:30:56;;;;;;;22.48;6.22;;;;;;;7.32;100.00;101646.81;8377565;28;20515;-64
2021/12/20 03:34:57;;;;;;;18.80;7.30;;;;;;;7.32;100.00;101652.19;8386340;28;20044;-64
2021/12/20 03:38:57;;;;;;;20.20;5.68;;;;;;;7.34;100.00;101655.66;8375650;28;20051;-64
2021/12/20 03:42:58;;;;;;;25.90;6.47;;;;;;;7.35;100.00;101646.63;8367087;28;20044;-64
2021/12/20 03:47:00;;;;;;;15.57;6.30;;;;;;;7.38;100.00;101650.97;8372242;28;20048;-64
2021/12/20 03:51:02;;;;;;;15.63;6.32;;;;;;;7.34;100.00;101649.41;8360365;28;20041;-64
2021/12/20 03:55:03;;;;;;;17.88;6.50;;;;;;;7.29;100.00;101641.63;8375022;28;20048;-64
2021/12/20 03:59:03;;;;;;;24.27;5.53;;;;;;;7.31;100.00;101661.22;8359556;28;20039;-64
2021/12/20 04:03:09;;;;;;;17.40;5.20;;;;;;;7.35;100.00;101662.78;8369257;28;20863;-64
2021/12/20 04:07:10;;;;;;;17.55;5.07;;;;;;;7.34;100.00;101655.66;8360293;28;20493;-64
2021/12/20 04:11:10;;;;;;;32.22;5.78;;;;;;;7.36;100.00;101651.06;8348833;28;20473;-64
2021/12/20 04:15:10;;;;;;;17.40;4.53;;;;;;;7.42;100.00;101648.00;8327647;28;20051;-64
2021/12/20 04:19:11;;;;;;;25.40;5.32;;;;;;;7.38;100.00;101646.44;8337263;28;20044;-64
2021/12/20 04:23:12;;;;;;;15.75;4.13;;;;;;;7.38;100.00;101651.81;8340613;28;20330;-64
2021/12/20 04:27:12;;;;;;;17.65;5.18;;;;;;;7.38;100.00;101646.44;8336046;28;20574;-64
2021/12/20 04:31:13;;;;;;;19.58;4.80;;;;;;;7.43;100.00;101655.13;8339939;28;20124;-64
2021/12/20 04:35:16;;;;;;;17.30;5.50;;;;;;;7.40;100.00;101660.69;8343442;28;20492;-64
2021/12/20 04:39:19;;;;;;;23.00;4.50;;;;;;;7.41;100.00;101646.25;8343504;28;20399;-64
2021/12/20 04:43:20;;;;;;;24.30;5.63;;;;;;;7.41;100.00;101654.31;8328452;28;20080;-64
2021/12/20 04:47:21;;;;;;;21.25;5.45;;;;;;;7.38;100.00;101651.81;8333780;28;20057;-64
2021/12/20 04:51:21;;;;;;;29.67;5.97;;;;;;;7.38;100.00;101656.34;8342422;28;20037;-64
2021/12/20 04:55:24;;;;;;;20.10;4.20;;;;;;;7.38;100.00;101651.81;8352109;28;20037;-64
2021/12/20 04:59:24;;;;;;;32.53;5.63;;;;;;;7.38;100.00;101656.34;8332625;28;20041;-64
2021/12/20 05:03:24;;;;;;;20.77;4.50;;;;;;;7.39;100.00;101653.56;8363613;28;20496;-64
2021/12/20 05:07:26;;;;;;;25.45;6.53;;;;;;;7.33;100.00;101643.19;8353363;28;20033;-64
2021/12/20 05:11:29;;;;;;;21.70;4.93;;;;;;;7.36;100.00;101643.00;8341758;28;20041;-64
2021/12/20 05:15:30;;;;;;;20.60;4.78;;;;;;;7.37;100.00;101643.84;8336443;28;20086;-64
2021/12/20 05:19:30;;;;;;;24.48;5.65;;;;;;;7.40;100.00;101652.59;8331310;28;20034;-64
2021/12/20 05:23:30;;;;;;;24.70;5.93;;;;;;;7.39;100.00;101658.97;8326263;28;20053;-64
2021/12/20 05:27:31;;;;;;;21.33;5.38;;;;;;;7.36;100.00;101648.38;8338968;28;20110;-64
2021/12/20 05:31:33;;;;;;;23.67;4.95;;;;;;;7.33;100.00;101653.06;8335983;28;20072;-64
2021/12/20 05:35:33;;;;;;;16.65;4.43;;;;;;;7.34;100.00;101650.28;8338550;28;20117;-64
2021/12/20 05:39:34;;;;;;;19.67;5.25;;;;;;;7.30;100.00;101659.50;8331536;28;20041;-64
2021/12/20 05:43:34;;;;;;;21.40;5.32;;;;;;;7.30;100.00;101648.75;8334129;28;20063;-64
2021/12/20 05:47:35;;;;;;;20.95;5.05;;;;;;;7.19;100.00;101651.19;8344039;28;20474;-64
2021/12/20 05:51:35;;;;;;;22.73;5.93;;;;;;;7.24;100.00;101654.50;8350367;28;20075;-64
2021/12/20 05:55:36;;;;;;;27.45;5.30;;;;;;;7.25;100.00;101666.09;8335123;28;20044;-64
2021/12/20 05:59:36;;;;;;;29.90;5.07;;;;;;;7.22;100.00;101664.47;8354405;28;20043;-64
2021/12/20 06:03:37;;;;;;;22.30;4.68;;;;;;;7.24;100.00;101673.31;8336747;28;20416;-64
2021/12/20 06:07:40;;;;;;;24.58;5.25;;;;;;;7.27;100.00;101675.84;8336079;28;20695;-64
2021/12/20 06:11:41;;;;;;;31.58;6.25;;;;;;;7.30;100.00;101674.78;8349667;28;20041;-64
2021/12/20 06:15:41;;;;;;;33.10;5.55;;;;;;;7.23;100.00;101671.56;8328445;28;20033;-64
2021/12/20 06:19:42;;;;;;;26.00;5.35;;;;;;;7.28;100.00;101674.88;8327381;28;20509;-64
2021/12/20 06:23:42;;;;;;;16.23;4.15;;;;;;;7.29;98.79;101679.28;8317780;28;20096;-64
2021/12/20 06:27:43;;;;;;;26.73;5.80;;;;;;;7.34;97.30;101687.94;8330874;28;20065;-64
2021/12/20 06:31:43;;;;;;;20.17;3.75;;;;;;;7.32;96.06;101680.94;8332256;28;20052;-64
2021/12/20 06:35:45;;;;;;;18.63;4.43;;;;;;;7.29;95.52;101681.97;8353163;28;20048;-64
2021/12/20 06:39:46;;;;;;;28.02;3.70;;;;;;;7.36;92.83;101691.44;8352792;28;20072;-64
2021/12/20 06:43:46;;;;;;;26.80;4.45;;;;;;;7.30;94.56;101689.09;8325371;28;20524;-64
2021/12/20 06:47:47;;;;;;;25.67;4.35;;;;;;;7.21;94.85;101678.88;8336766;28;20044;-64
2021/12/20 06:51:47;;;;;;;20.70;4.05;;;;;;;7.17;93.80;101685.38;8358349;28;20041;-63
2021/12/20 06:55:48;;;;;;;18.40;3.28;;;;;;;7.26;92.60;101684.84;8358338;28;20587;-63
2021/12/20 06:59:48;;;;;;;22.85;4.25;;;;;;;7.07;98.05;101686.88;8352256;28;20048;-63
2021/12/20 07:03:49;;;;;;;27.08;4.80;;;;;;;6.93;100.00;101694.91;8352331;28;20040;-64
2021/12/20 07:07:49;;;;;;;24.77;4.45;;;;;;;6.86;100.00;101696.19;8341679;28;20040;-63
2021/12/20 07:11:50;;;;;;;22.40;4.70;;;;;;;6.80;100.00;101698.38;8352327;28;20025;-63
2021/12/20 07:15:50;;;;;;;21.55;4.15;;;;;;;6.76;100.00;101711.13;8352563;28;20146;-64
2021/12/20 07:19:50;;;;;;;19.05;3.97;;;;;;;6.66;100.00;101707.22;8372627;28;20049;-63
2021/12/20 07:23:51;;;;;;;18.35;4.68;;;;;;;6.68;100.00;101708.00;8356216;28;20048;-63
2021/12/20 07:27:52;;;;;;;21.55;5.03;;;;;;;6.66;100.00;101711.72;8346231;28;20041;-63
2021/12/20 07:31:52;;;;;;;17.63;4.88;;;;;;;6.64;100.00;101716.31;8364753;28;20044;-64
2021/12/20 07:35:53;;;;;;;20.80;5.18;;;;;;;6.70;100.00;101711.47;8339997;28;20616;-64
2021/12/20 07:39:54;;;;;;;16.20;4.82;;;;;;;6.74;100.00;101721.06;8346249;28;20469;-63
2021/12/20 07:43:55;;;;;;;17.38;4.93;;;;;;;6.77;100.00;101718.22;8339300;28;20041;-64
2021/12/20 07:47:55;;;;;;;16.25;5.20;;;;;;;6.73;100.00;101722.03;8351011;28;20045;-63
2021/12/20 07:51:56;;;;;;;25.00;5.43;;;;;;;6.72;100.00;101714.94;8361558;28;20115;-64
2021/12/20 07:55:56;;;;;;;19.88;4.90;;;;;;;6.73;100.00;101727.41;8347946;28;20125;-63
2021/12/20 07:59:57;;;;;;;29.48;5.50;;;;;;;6.77;100.00;101723.59;8341031;28;20041;-63
2021/12/20 08:03:57;;;;;;;18.90;5.22;;;;;;;6.79;100.00;101727.06;8341232;28;20045;-64
2021/12/20 08:07:57;;;;;;;26.00;7.65;;;;;;;6.89;98.96;101722.91;8368225;28;20505;-64
2021/12/20 08:11:58;;;;;;;21.75;5.38;;;;;;;6.93;97.83;101713.72;8352218;28;20041;-63
2021/12/20 08:15:58;;;;;;;15.63;3.97;;;;;;;7.03;96.75;101725.66;8328831;28;20041;-64
2021/12/20 08:19:59;;;;;;;21.73;3.85;;;;;;;7.02;96.00;101723.06;8332529;28;20571;-64
2021/12/20 08:23:59;;;;;;;24.00;4.47;;;;;;;7.02;97.32;101729.28;8336975;28;20045;-63
2021/12/20 08:28:00;;;;;;;17.70;4.40;;;;;;;7.01;99.63;101726.69;8364271;28;20504;-63
2021/12/20 08:32:02;;;;;;;19.52;4.18;;;;;;;7.06;100.00;101725.50;8335769;28;20033;-63
2021/12/20 08:36:05;;;;;;;18.27;4.82;;;;;;;7.08;96.38;101733.47;8359862;28;20057;-63
2021/12/20 08:40:10;;;;;;;22.15;6.20;;;;;;;7.18;94.72;101740.91;8342682;28;20040;-63
2021/12/20 08:44:10;;;;;;;20.40;5.10;;;;;;;7.20;94.38;101738.97;8324312;28;20064;-64
2021/12/20 08:48:11;;;;;;;15.90;5.47;;;;;;;7.27;95.42;101740.38;8364995;28;20064;-63
2021/12/20 08:52:12;;;;;;;16.98;3.83;;;;;;;7.33;92.84;101748.09;8347706;28;20029;-63
2021/12/20 08:56:13;;;;;;;26.45;3.97;;;;;;;7.36;93.29;101739.84;8354036;28;20036;-63
2021/12/20 09:00:19;;;;;;;16.85;3.67;;;;;;;7.49;93.48;101748.91;8366380;28;20124;-63
2021/12/20 09:04:19;;;;;;;25.02;3.53;;;;;;;7.58;90.45;101751.06;8345606;28;20045;-63
2021/12/20 09:08:21;;;;;;;32.92;4.43;;;;;;;7.65;90.93;101754.22;8355442;28;20038;-63
2021/12/20 09:12:22;;;;;;;25.63;4.18;;;;;;;7.65;89.20;101768.56;8354401;28;20364;-63
2021/12/20 09:16:22;;;;;;;19.55;4.20;;;;;;;7.63;89.08;101765.09;8347586;28;20072;-63
2021/12/20 09:20:26;;;;;;;24.63;3.85;;;;;;;7.68;88.36;101762.13;8338709;28;20102;-63
2021/12/20 09:24:27;;;;;;;29.77;4.97;;;;;;;7.70;88.55;101769.16;8362717;28;20110;-63
2021/12/20 09:28:27;;;;;;;34.40;4.70;;;;;;;7.75;89.72;101764.34;8344035;28;20186;-63
2021/12/20 09:32:28;;;;;;;25.08;5.30;;;;;;;7.79;89.40;101775.81;8338709;28;20057;-63
2021/12/20 09:36:29;;;;;;;20.23;4.80;;;;;;;7.85;89.41;101781.72;8339791;28;20076;-63
2021/12/20 09:40:33;;;;;;;24.33;5.53;;;;;;;7.83;89.32;101774.66;8341203;28;20037;-63
2021/12/20 09:44:33;;;;;;;34.10;5.83;;;;;;;7.79;89.48;101779.38;8334502;28;20414;-64
2021/12/20 09:48:35;;;;;;;28.75;5.35;;;;;;;7.72;89.37;101786.06;8366583;28;20094;-63
2021/12/20 09:52:35;;;;;;;33.90;5.18;;;;;;;7.43;91.69;101786.94;8378689;28;20162;-63
2021/12/20 09:56:39;;;;;;;28.70;4.88;;;;;;;7.26;91.91;101784.34;8381363;28;20044;-63
2021/12/20 10:00:40;;;;;;;27.88;6.03;;;;;;;7.14;92.30;101789.59;8377621;28;20116;-64
2021/12/20 10:04:40;;;;;;;24.38;5.15;;;;;;;7.37;94.51;101784.59;8359572;28;20056;-63
2021/12/20 10:08:50;;;;;;;30.48;5.72;;;;;;;7.24;91.69;101798.84;8367370;28;20048;-63
2021/12/20 10:12:51;;;;;;;32.15;5.30;;;;;;;7.23;92.20;101792.59;8344137;28;20075;-63
2021/12/20 10:17:03;;;;;;;24.48;4.45;;;;;;;7.56;88.88;101796.03;8326625;28;20044;-63
2021/12/20 10:21:03;;;;;;;22.67;5.13;;;;;;;7.41;89.73;101791.53;8350054;28;20120;-63
2021/12/20 10:25:20;;;;;;;30.05;5.55;;;;;;;9.06;84.40;101796.44;8362041;28;20068;-63
2021/12/20 10:29:21;;;;;;;25.52;5.70;;;;;;;10.94;75.91;101794.06;8362092;28;20041;-63
2021/12/20 10:33:23;;;;;;;26.77;4.70;;;;;;;11.97;70.26;101788.97;8354518;28;20082;-63
2021/12/20 10:37:38;;;;;;;23.83;4.22;;;;;;;12.29;68.91;101787.34;8370639;28;20459;-63
2021/12/20 10:41:39;;;;;;;29.80;4.15;;;;;;;12.19;68.64;101779.06;8386926;28;20028;-63
2021/12/20 10:45:39;;;;;;;28.90;4.03;;;;;;;12.26;68.06;101784.88;8362964;28;20519;-63
2021/12/20 10:49:40;;;;;;;17.08;4.15;;;;;;;12.44;66.14;101778.84;8352839;28;20040;-63
2021/12/20 10:53:46;;;;;;;18.95;4.00;;;;;;;11.72;67.12;101774.59;8354067;28;20069;-63
2021/12/20 10:57:46;;;;;;;24.80;4.00;;;;;;;11.65;69.07;101778.78;8353401;28;20062;-63
2021/12/20 11:10:14;;;;;;;19.33;4.75;;;;;;;12.85;64.54;101786.41;8378510;28;20378;-63
2021/12/20 11:14:17;;;;;;;34.38;4.82;;;;;;;12.55;64.52;101769.88;8358483;28;20043;-63
2021/12/20 11:18:18;;;;;;;19.40;4.03;;;;;;;12.40;64.40;101768.38;8385026;28;20029;-63
2021/12/20 11:22:24;;;;;;;17.67;3.42;;;;;;;12.87;62.21;101771.72;8352613;28;20037;-63
2021/12/20 11:26:27;;;;;;;21.63;3.67;;;;;;;12.74;63.36;101764.69;8352922;28;20044;-63
2021/12/20 11:30:27;;;;;;;27.55;4.80;;;;;;;12.91;61.90;101762.34;8355820;28;20040;-63
2021/12/20 11:34:29;;;;;;;24.88;4.10;;;;;;;13.11;61.12;101758.88;8384595;28;20123;-63
2021/12/20 11:38:29;;;;;;;20.17;3.40;;;;;;;12.45;61.55;101758.03;8385410;28;20398;-63
2021/12/20 11:42:29;;;;;;;28.25;4.28;;;;;;;12.66;61.44;101761.75;8379323;28;20095;-63
2021/12/20 11:46:39;;;;;;;14.35;3.10;;;;;;;12.38;61.18;101759.50;8353263;28;20048;-63
2021/12/20 11:50:43;;;;;;;19.40;3.00;;;;;;;12.11;61.66;101753.56;8372080;28;20534;-63
2021/12/20 11:54:50;;;;;;;22.67;3.40;;;;;;;12.14;61.70;101748.72;8385031;28;20064;-63
2021/12/20 11:58:51;;;;;;;20.98;3.65;;;;;;;11.58;62.18;101750.41;8363414;28;20122;-63
2021/12/20 12:02:57;;;;;;;23.70;4.00;;;;;;;11.55;63.72;101745.22;8371710;28;20052;-63
2021/12/20 12:07:21;;;;;;;20.35;4.10;;;;;;;10.57;67.55;101754.44;8374754;28;20045;-63
2021/12/20 12:15:53;;;;;;;23.17;4.18;;;;;;;9.84;68.54;101749.75;8376182;27;20387;-63
2021/12/20 12:19:54;;;;;;;22.70;3.60;;;;;;;9.64;69.02;101747.56;8375627;28;20411;-63
2021/12/20 12:23:54;;;;;;;27.77;3.67;;;;;;;9.44;70.21;101738.13;8373797;28;20067;-63
2021/12/20 12:27:58;;;;;;;22.83;4.18;;;;;;;9.42;68.10;101749.97;8371917;28;20048;-64
2021/12/20 12:32:00;;;;;;;21.52;3.47;;;;;;;9.43;70.54;101735.53;8367142;28;20460;-63
2021/12/20 12:36:05;;;;;;;16.35;3.67;;;;;;;9.09;72.21;101741.44;8331030;28;20053;-63
2021/12/20 12:40:26;;;;;;;25.48;4.40;;;;;;;8.99;72.36;101737.59;8341488;28;20055;-63
2021/12/20 12:44:29;;;;;;;24.13;4.07;;;;;;;9.02;73.29;101738.28;8339274;28;20532;-63
2021/12/20 12:48:40;;;;;;;21.40;3.95;;;;;;;8.99;72.30;101741.19;8346655;28;20067;-63
2021/12/20 12:52:41;;;;;;;16.92;3.53;;;;;;;8.91;73.71;101726.47;8373607;28;20041;-63
2021/12/20 12:56:41;;;;;;;24.33;4.15;;;;;;;8.67;75.07;101733.47;8374817;28;20109;-63
2021/12/20 13:00:42;;;;;;;25.40;3.55;;;;;;;8.34;74.88;101724.81;8373351;28;20041;-64
2021/12/20 13:04:46;;;;;;;25.38;4.28;;;;;;;8.07;74.22;101725.56;8374314;28;20486;-63
2021/12/20 13:08:52;;;;;;;25.90;4.10;;;;;;;8.02;74.49;101724.09;8357525;28;20045;-63
2021/12/20 13:12:56;;;;;;;18.63;3.72;;;;;;;7.92;75.13;101725.66;8371902;28;20456;-63
2021/12/20 13:17:00;;;;;;;26.67;4.32;;;;;;;7.87;74.88;101731.31;8375431;28;20044;-63
2021/12/20 13:21:04;;;;;;;19.38;3.08;;;;;;;7.78;75.47;101731.03;8368548;28;20158;-63
2021/12/20 13:25:04;;;;;;;24.27;3.15;;;;;;;7.78;75.72;101733.72;8341007;28;20048;-63
2021/12/20 13:29:05;;;;;;;24.23;4.20;;;;;;;7.78;74.88;101731.88;8322840;28;20057;-63
2021/12/20 13:33:06;;;;;;;27.08;3.55;;;;;;;7.88;73.50;101737.56;8337712;28;20037;-63
2021/12/20 13:37:09;;;;;;;24.50;3.33;;;;;;;7.86;74.42;101732.28;8341161;28;20578;-63
2021/12/20 13:41:14;;;;;;;29.00;3.70;;;;;;;7.97;73.92;101727.09;8350299;28;20131;-63
2021/12/20 13:45:15;;;;;;;23.13;3.65;;;;;;;7.99;73.02;101733.25;8348587;28;20037;-63
2021/12/20 13:53:33;;;;;;;22.17;3.35;;;;;;;7.99;70.95;101735.94;8298898;28;20407;-63
2021/12/20 13:57:34;;;;;;;19.77;3.35;;;;;;;8.01;70.26;101730.47;8305469;28;20034;-63
2021/12/20 14:01:35;;;;;;;17.45;2.85;;;;;;;7.97;71.17;101737.84;8308069;28;20262;-63
2021/12/20 14:05:37;;;;;;;15.70;3.03;;;;;;;7.84;71.05;101736.88;8308131;28;20057;-63
2021/12/20 14:10:02;;;;;;;11.27;2.67;;;;;;;7.78;71.06;101737.25;8286945;28;20049;-63
2021/12/20 14:14:17;;;;;;;17.13;2.70;;;;;;;7.65;71.02;101722.81;8322468;28;20132;-63
2021/12/20 14:18:20;;;;;;;11.75;3.42;;;;;;;7.66;70.78;101723.69;8340005;28;20041;-63
2021/12/20 14:22:20;;;;;;;11.60;2.70;;;;;;;7.58;71.35;101724.16;8337361;28;20090;-65
2021/12/20 14:26:26;;;;;;;19.55;5.55;;;;;;;7.55;70.50;101723.44;8331231;28;20659;-65
2021/12/20 14:30:26;;;;;;;18.27;5.03;;;;;;;7.51;70.27;101719.22;8338306;28;20119;-65
2021/12/20 14:34:33;;;;;;;26.05;7.63;;;;;;;7.49;70.45;101727.38;8332704;28;20041;-65
2021/12/20 14:38:52;;;;;;;27.08;6.28;;;;;;;7.39;70.36;101722.66;8337707;28;20041;-65
2021/12/20 14:43:13;;;;;;;19.00;4.65;;;;;;;7.36;69.94;101717.44;8324843;28;20072;-64
2021/12/20 14:47:26;;;;;;;15.20;3.08;;;;;;;7.28;70.03;101717.91;8323969;28;20098;-65
2021/12/20 14:51:27;;;;;;;8.90;2.38;;;;;;;7.22;69.97;101726.31;8327454;28;20439;-64
2021/12/20 14:55:33;;;;;;;10.18;2.38;;;;;;;7.11;70.58;101718.00;8321808;28;20041;-64
2021/12/20 14:59:33;;;;;;;15.15;2.30;;;;;;;7.04;70.26;101719.31;8337222;28;20116;-64
2021/12/20 15:03:41;;;;;;;9.55;2.47;;;;;;;6.94;71.02;101715.44;8319825;28;20037;-64
2021/12/20 15:07:42;;;;;;;13.40;3.20;;;;;;;6.42;77.67;101723.84;8304775;28;20117;-65
2021/12/20 15:11:43;;;;;;;14.30;2.55;;;;;;;6.06;80.24;101728.56;8313350;28;20048;-64
2021/12/20 15:15:44;;;;;;;17.52;2.50;;;;;;;5.96;81.19;101717.44;8307323;28;20488;-64
2021/12/20 15:19:45;;;;;;;13.57;2.65;;;;;;;6.22;74.82;101719.56;8312553;28;20250;-64
2021/12/20 15:23:45;;;;;;;12.95;1.98;;;;;;;5.74;77.66;101716.81;8309126;28;20120;-64
2021/12/20 15:27:46;;;;;;;13.18;2.33;;;;;;;5.63;80.04;101713.81;8311942;28;20042;-64
2021/12/20 15:31:46;;;;;;;10.63;2.75;;;;;;;5.45;82.45;101710.28;8314595;28;20052;-64
2021/12/20 15:35:47;;;;;;;13.20;3.40;;;;;;;5.05;84.25;101710.56;8314137;28;20049;-64
2021/12/20 15:39:48;;;;;;;15.40;2.80;;;;;;;5.03;84.44;101711.59;8312953;28;20299;-64
2021/12/20 15:43:48;;;;;;;15.35;2.30;;;;;;;5.32;79.46;101710.97;8308743;28;20076;-64
2021/12/20 15:47:48;;;;;;;6.80;2.00;;;;;;;5.60;77.84;101716.66;8309432;28;20033;-64
2021/12/20 15:51:49;;;;;;;18.23;4.78;;;;;;;5.29;79.04;101713.81;8309076;28;20048;-64
2021/12/20 15:55:49;;;;;;;10.63;2.55;;;;;;;4.67;82.34;101713.41;8307007;28;20041;-64
2021/12/20 15:59:50;;;;;;;12.38;3.45;;;;;;;4.60;83.78;101717.31;8313133;28;20095;-64
2021/12/20 16:03:51;;;;;;;15.52;3.38;;;;;;;4.79;85.20;101707.44;8307322;28;20041;-64
2021/12/20 16:07:52;;;;;;;8.60;2.50;;;;;;;4.64;80.90;101703.72;8308571;28;20457;-64
2021/12/20 16:11:52;;;;;;;14.50;2.80;;;;;;;4.12;84.93;101716.94;8305999;28;20037;-64
2021/12/20 16:15:56;;;;;;;13.85;2.85;;;;;;;4.34;86.44;101706.97;8309175;28;20128;-64
2021/12/20 16:19:56;;;;;;;14.93;2.77;;;;;;;4.18;85.30;101708.63;8309382;28;20065;-64
2021/12/20 16:23:57;;;;;;;8.13;2.72;;;;;;;4.16;86.91;101702.47;8313291;28;20036;-64
2021/12/20 16:27:58;;;;;;;17.05;2.83;;;;;;;3.91;87.48;101718.78;8312134;28;20116;-64
2021/12/20 16:31:58;;;;;;;9.80;2.50;;;;;;;3.72;87.36;101716.06;8302859;28;20124;-64
2021/12/20 16:35:59;;;;;;;14.80;3.05;;;;;;;3.43;88.69;101724.50;8311567;28;20049;-64
2021/12/20 16:40:00;;;;;;;11.52;2.50;;;;;;;3.89;87.65;101732.25;8306412;28;20560;-64
2021/12/20 16:44:01;;;;;;;11.32;1.85;;;;;;;3.87;85.52;101728.75;8312381;28;20037;-64
2021/12/20 16:48:12;;;;;;;8.60;1.90;;;;;;;3.23;89.46;101732.50;8303451;28;20052;-64
2021/12/20 16:52:14;;;;;;;6.13;1.95;;;;;;;3.28;89.78;101732.28;8313542;28;20045;-64
2021/12/20 16:56:14;;;;;;;9.43;2.45;;;;;;;3.21;89.83;101729.03;8300283;28;20546;-64
2021/12/20 17:00:15;;;;;;;16.23;2.90;;;;;;;3.22;88.56;101730.75;8301601;28;20447;-64
2021/12/20 17:08:34;;;;;;;12.38;2.60;;;;;;;2.96;88.58;101728.28;8304196;28;20686;-64
2021/12/20 17:12:34;;;;;;;8.95;1.70;;;;;;;3.04;90.95;101726.19;8311297;28;21005;-64
2021/12/20 17:16:34;;;;;;;9.45;2.40;;;;;;;3.01;91.29;101734.31;8313544;28;20049;-65
2021/12/20 17:20:36;;;;;;;7.68;2.65;;;;;;;2.66;91.33;101739.34;8280502;28;20049;-64
2021/12/20 17:24:37;;;;;;;10.52;2.67;;;;;;;2.97;91.36;101740.72;8312894;28;20049;-65
2021/12/20 17:28:37;;;;;;;15.23;3.22;;;;;;;2.40;91.35;101737.69;8311316;28;20033;-64
2021/12/20 17:32:38;;;;;;;11.82;2.55;;;;;;;2.58;93.51;101742.31;8308603;28;20413;-64
2021/12/20 17:36:38;;;;;;;13.25;2.33;;;;;;;2.52;93.71;101739.91;8309862;28;20048;-64
2021/12/20 17:40:38;;;;;;;12.73;2.90;;;;;;;2.43;93.69;101742.03;8307947;28;20574;-65
2021/12/20 17:44:39;;;;;;;7.53;2.45;;;;;;;2.41;94.23;101744.78;8306961;28;20124;-65
2021/12/20 17:48:39;;;;;;;8.77;2.80;;;;;;;2.07;95.10;101746.97;8305375;28;20439;-64
2021/12/20 17:52:40;;;;;;;10.35;2.75;;;;;;;2.50;93.94;101749.75;8305449;28;20037;-64
2021/12/20 17:56:40;;;;;;;11.27;2.63;;;;;;;2.54;93.64;101740.72;8309616;28;20061;-64
2021/12/20 18:00:42;;;;;;;14.23;3.60;;;;;;;2.01;94.65;101739.22;8304992;28;20069;-64
2021/12/20 18:04:42;;;;;;;10.20;3.22;;;;;;;1.93;96.07;101741.31;8313362;28;20616;-64
2021/12/20 18:08:43;;;;;;;12.65;2.72;;;;;;;1.88;95.10;101732.59;8315281;28;20459;-64
2021/12/20 18:12:46;;;;;;;17.08;2.88;;;;;;;2.07;92.53;101749.66;8318081;28;20072;-62
2021/12/20 18:16:46;;;;;;;15.27;2.40;;;;;;;2.01;92.29;101752.53;8278203;28;20069;-61
2021/12/20 18:20:47;;;;;;;11.55;3.03;;;;;;;2.02;91.95;101752.50;8320613;28;20072;-61
2021/12/20 18:24:47;;;;;;;7.57;2.78;;;;;;;2.37;91.61;101753.84;8320555;28;20042;-62
2021/12/20 18:28:48;;;;;;;9.20;2.92;;;;;;;1.87;90.93;101747.72;8314239;28;20133;-61
2021/12/20 18:32:48;;;;;;;11.77;2.60;;;;;;;1.70;92.65;101754.59;8327161;28;20144;-61
2021/12/20 18:36:49;;;;;;;12.60;2.72;;;;;;;1.88;93.75;101753.94;8303185;28;20038;-61
2021/12/20 18:40:49;;;;;;;13.93;3.83;;;;;;;2.03;93.80;101758.69;8326044;28;20060;-62
2021/12/20 18:44:49;;;;;;;9.10;2.40;;;;;;;1.58;93.79;101765.69;8323782;28;20092;-62
2021/12/20 18:48:50;;;;;;;10.15;2.90;;;;;;;1.65;95.94;101767.22;8321644;28;20140;-61
2021/12/20 18:52:51;;;;;;;10.43;2.88;;;;;;;1.47;96.07;101767.88;8320213;28;20083;-62
2021/12/20 18:56:51;;;;;;;12.90;2.92;;;;;;;1.20;96.47;101758.13;8311758;28;20350;-61
2021/12/20 19:00:52;;;;;;;16.25;3.60;;;;;;;1.15;96.14;101760.06;8305885;28;20041;-62
2021/12/20 19:04:54;;;;;;;18.60;4.47;;;;;;;1.45;94.04;101764.38;8312179;28;20111;-61
2021/12/20 19:08:54;;;;;;;12.80;4.30;;;;;;;1.52;92.86;101766.78;8309405;28;20038;-61